sensor_id;sensor_type;location;lat;lon;timestamp;noise_LAeq;noise_LA_min;noise_LA_max;noise_LA01;noise_LA95
59284;Laerm;45056;47.602;9.886;2024-02-26T00:02:28;42.61;35.94;58.62;;
59284;Laerm;45056;47.602;9.886;2024-02-26T00:04:56;39.14;35.66;42.59;;
59284;Laerm;45056;47.602;9.886;2024-02-26T00:07:24;39.15;35.04;45.48;;
59284;Laerm;45056;47.602;9.886;2024-02-26T00:09:52;40.91;37.12;51.53;;
59284;Laerm;45056;47.602;9.886;2024-02-26T00:12:20;40.09;35.66;44.31;;
59284;Laerm;45056;47.602;9.886;2024-02-26T00:14:48;39.83;36.20;42.53;;
59284;Laerm;45056;47.602;9.886;2024-02-26T00:17:16;40.67;36.20;53.82;;
59284;Laerm;45056;47.602;9.886;2024-02-26T00:19:45;39.75;35.66;42.22;;
59284;Laerm;45056;47.602;9.886;2024-02-26T00:22:13;40.98;36.45;53.67;;
59284;Laerm;45056;47.602;9.886;2024-02-26T00:24:41;40.93;35.94;52.70;;
59284;Laerm;45056;47.602;9.886;2024-02-26T00:27:09;41.31;36.20;47.96;;
59284;Laerm;45056;47.602;9.886;2024-02-26T00:29:37;40.25;36.45;45.83;;
59284;Laerm;45056;47.602;9.886;2024-02-26T00:32:06;41.04;35.66;53.78;;
59284;Laerm;45056;47.602;9.886;2024-02-26T00:34:34;39.74;34.69;42.22;;
59284;Laerm;45056;47.602;9.886;2024-02-26T00:37:03;39.89;35.04;42.35;;
59284;Laerm;45056;47.602;9.886;2024-02-26T00:39:31;39.93;35.94;42.58;;
59284;Laerm;45056;47.602;9.886;2024-02-26T00:41:59;39.88;36.20;42.41;;
59284;Laerm;45056;47.602;9.886;2024-02-26T00:44:27;39.97;35.36;44.11;;
59284;Laerm;45056;47.602;9.886;2024-02-26T00:46:55;42.10;35.94;54.87;;
59284;Laerm;45056;47.602;9.886;2024-02-26T00:49:23;41.69;37.12;54.07;;
59284;Laerm;45056;47.602;9.886;2024-02-26T00:51:51;39.98;36.20;42.41;;
59284;Laerm;45056;47.602;9.886;2024-02-26T00:54:21;39.96;35.36;42.53;;
59284;Laerm;45056;47.602;9.886;2024-02-26T00:56:49;40.07;35.86;42.71;;
59284;Laerm;45056;47.602;9.886;2024-02-26T00:59:17;39.75;35.04;42.76;;
59284;Laerm;45056;47.602;9.886;2024-02-26T01:01:45;43.34;34.69;57.92;;
59284;Laerm;45056;47.602;9.886;2024-02-26T01:04:13;38.07;33.90;40.71;;
59284;Laerm;45056;47.602;9.886;2024-02-26T01:06:41;38.76;34.31;43.14;;
59284;Laerm;45056;47.602;9.886;2024-02-26T01:09:09;38.54;33.97;42.93;;
59284;Laerm;45056;47.602;9.886;2024-02-26T01:11:38;42.08;34.69;56.95;;
59284;Laerm;45056;47.602;9.886;2024-02-26T01:14:06;40.21;36.45;42.71;;
59284;Laerm;45056;47.602;9.886;2024-02-26T01:16:34;40.39;36.20;51.82;;
59284;Laerm;45056;47.602;9.886;2024-02-26T01:19:02;39.37;34.69;42.65;;
59284;Laerm;45056;47.602;9.886;2024-02-26T01:21:30;39.49;35.04;43.99;;
59284;Laerm;45056;47.602;9.886;2024-02-26T01:23:58;39.52;35.04;43.81;;
59284;Laerm;45056;47.602;9.886;2024-02-26T01:26:26;38.43;35.04;41.96;;
59284;Laerm;45056;47.602;9.886;2024-02-26T01:28:56;38.94;33.90;42.35;;
59284;Laerm;45056;47.602;9.886;2024-02-26T01:31:24;42.11;35.04;56.89;;
59284;Laerm;45056;47.602;9.886;2024-02-26T01:33:52;40.12;35.94;44.19;;
59284;Laerm;45056;47.602;9.886;2024-02-26T01:36:20;39.94;33.90;43.72;;
59284;Laerm;45056;47.602;9.886;2024-02-26T01:38:48;38.90;35.04;43.63;;
59284;Laerm;45056;47.602;9.886;2024-02-26T01:41:16;38.63;34.31;40.98;;
59284;Laerm;45056;47.602;9.886;2024-02-26T01:43:44;38.53;34.31;41.22;;
59284;Laerm;45056;47.602;9.886;2024-02-26T01:46:16;40.48;34.31;53.13;;
59284;Laerm;45056;47.602;9.886;2024-02-26T01:48:47;39.86;35.36;44.35;;
59284;Laerm;45056;47.602;9.886;2024-02-26T01:51:17;40.03;36.20;42.71;;
59284;Laerm;45056;47.602;9.886;2024-02-26T01:53:45;39.37;34.31;42.65;;
59284;Laerm;45056;47.602;9.886;2024-02-26T01:56:17;39.69;34.69;43.29;;
59284;Laerm;45056;47.602;9.886;2024-02-26T01:58:47;38.30;34.31;41.46;;
59284;Laerm;45056;47.602;9.886;2024-02-26T02:01:22;43.84;34.31;57.31;;
59284;Laerm;45056;47.602;9.886;2024-02-26T02:03:54;38.50;34.31;41.46;;
59284;Laerm;45056;47.602;9.886;2024-02-26T02:06:22;40.02;35.36;43.14;;
59284;Laerm;45056;47.602;9.886;2024-02-26T02:08:51;39.94;35.94;42.65;;
59284;Laerm;45056;47.602;9.886;2024-02-26T02:11:19;38.87;34.69;43.94;;
59284;Laerm;45056;47.602;9.886;2024-02-26T02:13:47;39.84;35.04;45.51;;
59284;Laerm;45056;47.602;9.886;2024-02-26T02:16:15;39.59;35.01;53.07;;
59284;Laerm;45056;47.602;9.886;2024-02-26T02:18:45;44.28;35.04;61.60;;
59284;Laerm;45056;47.602;9.886;2024-02-26T02:21:14;38.48;34.31;41.46;;
59284;Laerm;45056;47.602;9.886;2024-02-26T02:23:42;39.91;34.69;42.82;;
59284;Laerm;45056;47.602;9.886;2024-02-26T02:26:15;40.81;35.94;50.25;;
59284;Laerm;45056;47.602;9.886;2024-02-26T02:28:45;38.56;34.69;41.14;;
59284;Laerm;45056;47.602;9.886;2024-02-26T02:31:15;39.89;34.69;53.41;;
59284;Laerm;45056;47.602;9.886;2024-02-26T02:33:44;38.64;34.31;41.46;;
59284;Laerm;45056;47.602;9.886;2024-02-26T02:36:13;41.53;35.04;54.96;;
59284;Laerm;45056;47.602;9.886;2024-02-26T02:38:49;39.49;35.94;42.71;;
59284;Laerm;45056;47.602;9.886;2024-02-26T02:41:18;40.30;36.91;42.65;;
59284;Laerm;45056;47.602;9.886;2024-02-26T02:43:46;40.19;34.34;48.84;;
59284;Laerm;45056;47.602;9.886;2024-02-26T02:46:14;40.16;34.31;54.35;;
59284;Laerm;45056;47.602;9.886;2024-02-26T02:48:42;38.52;34.69;40.89;;
59284;Laerm;45056;47.602;9.886;2024-02-26T02:51:11;38.67;34.31;41.46;;
59284;Laerm;45056;47.602;9.886;2024-02-26T02:53:40;40.29;33.90;52.44;;
59284;Laerm;45056;47.602;9.886;2024-02-26T02:56:08;40.96;35.04;46.80;;
59284;Laerm;45056;47.602;9.886;2024-02-26T02:58:36;40.28;36.45;42.53;;
59284;Laerm;45056;47.602;9.886;2024-02-26T03:01:04;46.09;36.20;60.57;;
59284;Laerm;45056;47.602;9.886;2024-02-26T03:03:32;39.38;35.94;41.38;;
59284;Laerm;45056;47.602;9.886;2024-02-26T03:05:59;42.08;35.94;58.25;;
59284;Laerm;45056;47.602;9.886;2024-02-26T03:08:28;39.57;35.04;44.39;;
59284;Laerm;45056;47.602;9.886;2024-02-26T03:10:59;41.54;35.04;56.11;;
59284;Laerm;45056;47.602;9.886;2024-02-26T03:13:27;40.82;35.94;50.99;;
59284;Laerm;45056;47.602;9.886;2024-02-26T03:15:55;41.46;36.45;55.30;;
59284;Laerm;45056;47.602;9.886;2024-02-26T03:18:23;40.56;35.94;46.64;;
59284;Laerm;45056;47.602;9.886;2024-02-26T03:20:51;40.62;35.04;49.36;;
59284;Laerm;45056;47.602;9.886;2024-02-26T03:23:19;41.54;36.20;50.18;;
59284;Laerm;45056;47.602;9.886;2024-02-26T03:25:47;39.20;35.66;42.98;;
59284;Laerm;45056;47.602;9.886;2024-02-26T03:28:17;44.94;35.86;60.05;;
59284;Laerm;45056;47.602;9.886;2024-02-26T03:30:45;41.20;35.04;53.25;;
59284;Laerm;45056;47.602;9.886;2024-02-26T03:33:13;39.67;34.31;42.65;;
59284;Laerm;45056;47.602;9.886;2024-02-26T03:35:41;42.50;37.52;55.06;;
59284;Laerm;45056;47.602;9.886;2024-02-26T03:38:09;40.37;34.31;55.36;;
59284;Laerm;45056;47.602;9.886;2024-02-26T03:40:36;41.83;36.34;52.00;;
59284;Laerm;45056;47.602;9.886;2024-02-26T03:43:04;41.72;36.20;52.88;;
59284;Laerm;45056;47.602;9.886;2024-02-26T03:45:35;41.86;34.69;54.59;;
59284;Laerm;45056;47.602;9.886;2024-02-26T03:48:04;43.70;38.21;53.97;;
59284;Laerm;45056;47.602;9.886;2024-02-26T03:50:32;44.38;35.94;56.98;;
59284;Laerm;45056;47.602;9.886;2024-02-26T03:53:01;44.47;37.12;56.86;;
59284;Laerm;45056;47.602;9.886;2024-02-26T03:55:29;42.02;37.70;53.16;;
59284;Laerm;45056;47.602;9.886;2024-02-26T03:57:57;42.03;37.52;56.13;;
59284;Laerm;45056;47.602;9.886;2024-02-26T04:00:25;47.58;37.70;59.47;;
59284;Laerm;45056;47.602;9.886;2024-02-26T04:02:56;43.54;36.91;57.46;;
59284;Laerm;45056;47.602;9.886;2024-02-26T04:05:24;42.01;36.69;49.25;;
59284;Laerm;45056;47.602;9.886;2024-02-26T04:07:52;44.64;38.21;55.82;;
59284;Laerm;45056;47.602;9.886;2024-02-26T04:10:20;45.52;39.08;55.81;;
59284;Laerm;45056;47.602;9.886;2024-02-26T04:12:48;43.67;38.52;56.14;;
59284;Laerm;45056;47.602;9.886;2024-02-26T04:15:17;44.71;38.81;55.41;;
59284;Laerm;45056;47.602;9.886;2024-02-26T04:17:44;44.43;37.52;56.30;;
59284;Laerm;45056;47.602;9.886;2024-02-26T04:20:16;48.15;37.12;64.13;;
59284;Laerm;45056;47.602;9.886;2024-02-26T04:22:44;45.30;38.05;60.16;;
59284;Laerm;45056;47.602;9.886;2024-02-26T04:25:13;47.80;37.52;63.11;;
59284;Laerm;45056;47.602;9.886;2024-02-26T04:27:41;44.47;37.32;55.43;;
59284;Laerm;45056;47.602;9.886;2024-02-26T04:30:10;48.21;37.70;64.24;;
59284;Laerm;45056;47.602;9.886;2024-02-26T04:32:39;45.50;38.52;56.15;;
59284;Laerm;45056;47.602;9.886;2024-02-26T04:35:07;45.92;38.37;57.74;;
59284;Laerm;45056;47.602;9.886;2024-02-26T04:37:36;46.12;39.92;56.16;;
59284;Laerm;45056;47.602;9.886;2024-02-26T04:40:06;44.79;39.21;57.48;;
59284;Laerm;45056;47.602;9.886;2024-02-26T04:42:34;46.59;40.03;61.29;;
59284;Laerm;45056;47.602;9.886;2024-02-26T04:45:03;46.41;40.03;57.78;;
59284;Laerm;45056;47.602;9.886;2024-02-26T04:47:31;47.97;39.58;61.87;;
59284;Laerm;45056;47.602;9.886;2024-02-26T04:49:59;47.46;39.21;58.10;;
59284;Laerm;45056;47.602;9.886;2024-02-26T04:52:27;48.70;39.46;62.76;;
59284;Laerm;45056;47.602;9.886;2024-02-26T04:54:56;47.06;39.70;61.27;;
59284;Laerm;45056;47.602;9.886;2024-02-26T04:57:26;47.11;38.52;57.37;;
59284;Laerm;45056;47.602;9.886;2024-02-26T04:59:54;50.07;40.43;67.56;;
59284;Laerm;45056;47.602;9.886;2024-02-26T05:02:22;49.19;39.08;61.89;;
59284;Laerm;45056;47.602;9.886;2024-02-26T05:04:51;57.53;38.02;71.38;;
59284;Laerm;45056;47.602;9.886;2024-02-26T05:07:19;50.22;40.62;64.70;;
59284;Laerm;45056;47.602;9.886;2024-02-26T05:09:47;45.45;39.34;57.67;;
59284;Laerm;45056;47.602;9.886;2024-02-26T05:12:17;46.00;37.52;56.85;;
59284;Laerm;45056;47.602;9.886;2024-02-26T05:14:45;45.83;37.32;57.99;;
59284;Laerm;45056;47.602;9.886;2024-02-26T05:17:13;47.88;39.81;60.43;;
59284;Laerm;45056;47.602;9.886;2024-02-26T05:19:41;46.73;38.95;60.00;;
59284;Laerm;45056;47.602;9.886;2024-02-26T05:22:09;45.86;37.12;61.61;;
59284;Laerm;45056;47.602;9.886;2024-02-26T05:24:37;43.61;38.05;58.17;;
59284;Laerm;45056;47.602;9.886;2024-02-26T05:27:05;46.11;39.34;58.25;;
59284;Laerm;45056;47.602;9.886;2024-02-26T05:29:35;45.72;39.58;57.42;;
59284;Laerm;45056;47.602;9.886;2024-02-26T05:32:04;47.62;40.23;58.73;;
59284;Laerm;45056;47.602;9.886;2024-02-26T05:34:32;47.11;39.81;60.75;;
59284;Laerm;45056;47.602;9.886;2024-02-26T05:37:00;47.29;39.92;58.99;;
59284;Laerm;45056;47.602;9.886;2024-02-26T05:39:28;48.34;40.53;58.96;;
59284;Laerm;45056;47.602;9.886;2024-02-26T05:41:56;49.17;41.22;62.20;;
59284;Laerm;45056;47.602;9.886;2024-02-26T05:44:26;50.24;41.46;66.53;;
59284;Laerm;45056;47.602;9.886;2024-02-26T05:46:56;48.07;41.38;59.94;;
59284;Laerm;45056;47.602;9.886;2024-02-26T05:49:24;50.83;40.71;71.65;;
59284;Laerm;45056;47.602;9.886;2024-02-26T05:51:52;45.64;38.95;55.24;;
59284;Laerm;45056;47.602;9.886;2024-02-26T05:54:19;47.65;40.23;57.59;;
59284;Laerm;45056;47.602;9.886;2024-02-26T05:56:47;47.30;40.23;57.34;;
59284;Laerm;45056;47.602;9.886;2024-02-26T05:59:15;47.65;41.61;58.80;;
59284;Laerm;45056;47.602;9.886;2024-02-26T06:01:43;50.42;41.14;59.05;;
59284;Laerm;45056;47.602;9.886;2024-02-26T06:04:12;48.67;41.61;61.23;;
59284;Laerm;45056;47.602;9.886;2024-02-26T06:06:40;50.46;40.53;63.21;;
59284;Laerm;45056;47.602;9.886;2024-02-26T06:09:08;47.34;40.98;57.21;;
59284;Laerm;45056;47.602;9.886;2024-02-26T06:11:38;48.04;40.98;58.42;;
59284;Laerm;45056;47.602;9.886;2024-02-26T06:14:05;48.21;40.80;62.96;;
59284;Laerm;45056;47.602;9.886;2024-02-26T06:16:33;48.23;39.81;60.25;;
59284;Laerm;45056;47.602;9.886;2024-02-26T06:19:02;48.37;41.06;57.44;;
59284;Laerm;45056;47.602;9.886;2024-02-26T06:21:31;49.72;42.41;62.08;;
59284;Laerm;45056;47.602;9.886;2024-02-26T06:24:00;48.70;42.16;56.27;;
59284;Laerm;45056;47.602;9.886;2024-02-26T06:26:28;50.34;41.82;65.34;;
59284;Laerm;45056;47.602;9.886;2024-02-26T06:28:56;48.03;42.29;56.76;;
59284;Laerm;45056;47.602;9.886;2024-02-26T06:31:25;48.97;41.75;58.19;;
59284;Laerm;45056;47.602;9.886;2024-02-26T06:33:54;51.13;42.76;60.65;;
59284;Laerm;45056;47.602;9.886;2024-02-26T06:36:22;50.48;41.53;62.80;;
59284;Laerm;45056;47.602;9.886;2024-02-26T06:38:52;48.53;42.03;58.92;;
59284;Laerm;45056;47.602;9.886;2024-02-26T06:41:20;51.20;41.22;62.75;;
59284;Laerm;45056;47.602;9.886;2024-02-26T06:43:53;50.37;43.86;58.20;;
59284;Laerm;45056;47.602;9.886;2024-02-26T06:46:22;50.04;42.35;59.61;;
59284;Laerm;45056;47.602;9.886;2024-02-26T06:48:51;50.46;41.30;60.07;;
59284;Laerm;45056;47.602;9.886;2024-02-26T06:51:19;50.56;42.59;65.33;;
59284;Laerm;45056;47.602;9.886;2024-02-26T06:53:47;50.89;42.98;65.61;;
59284;Laerm;45056;47.602;9.886;2024-02-26T06:56:17;48.39;41.46;59.06;;
59284;Laerm;45056;47.602;9.886;2024-02-26T06:58:45;47.99;42.59;56.78;;
59284;Laerm;45056;47.602;9.886;2024-02-26T07:01:13;50.95;42.22;59.60;;
59284;Laerm;45056;47.602;9.886;2024-02-26T07:03:41;47.24;41.53;55.79;;
59284;Laerm;45056;47.602;9.886;2024-02-26T07:06:09;50.58;41.61;65.43;;
59284;Laerm;45056;47.602;9.886;2024-02-26T07:08:38;48.02;41.96;60.06;;
59284;Laerm;45056;47.602;9.886;2024-02-26T07:11:07;48.72;42.53;58.31;;
59284;Laerm;45056;47.602;9.886;2024-02-26T07:13:37;48.02;42.03;60.29;;
59284;Laerm;45056;47.602;9.886;2024-02-26T07:16:06;49.39;41.61;61.61;;
59284;Laerm;45056;47.602;9.886;2024-02-26T07:18:37;46.91;41.68;57.79;;
59284;Laerm;45056;47.602;9.886;2024-02-26T07:21:05;48.89;40.80;65.20;;
59284;Laerm;45056;47.602;9.886;2024-02-26T07:23:33;49.00;42.09;62.96;;
59284;Laerm;45056;47.602;9.886;2024-02-26T07:26:01;66.50;41.46;86.37;;
59284;Laerm;45056;47.602;9.886;2024-02-26T07:28:29;48.90;42.24;62.69;;
59284;Laerm;45056;47.602;9.886;2024-02-26T07:30:58;48.62;41.30;57.43;;
59284;Laerm;45056;47.602;9.886;2024-02-26T07:33:26;51.12;42.09;64.26;;
59284;Laerm;45056;47.602;9.886;2024-02-26T07:35:54;49.58;41.53;61.16;;
59284;Laerm;45056;47.602;9.886;2024-02-26T07:38:22;46.97;41.53;58.13;;
59284;Laerm;45056;47.602;9.886;2024-02-26T07:40:50;48.40;40.89;59.64;;
59284;Laerm;45056;47.602;9.886;2024-02-26T07:43:18;47.61;41.82;57.19;;
59284;Laerm;45056;47.602;9.886;2024-02-26T07:45:46;47.93;41.53;56.50;;
59284;Laerm;45056;47.602;9.886;2024-02-26T07:48:15;50.27;41.06;63.34;;
59284;Laerm;45056;47.602;9.886;2024-02-26T07:50:43;50.51;42.47;64.95;;
59284;Laerm;45056;47.602;9.886;2024-02-26T07:53:11;47.83;41.82;59.56;;
59284;Laerm;45056;47.602;9.886;2024-02-26T07:55:39;48.22;41.22;63.13;;
59284;Laerm;45056;47.602;9.886;2024-02-26T07:58:07;49.04;40.98;62.42;;
59284;Laerm;45056;47.602;9.886;2024-02-26T08:00:35;51.12;40.53;64.25;;
59284;Laerm;45056;47.602;9.886;2024-02-26T08:03:04;47.73;40.89;61.15;;
59284;Laerm;45056;47.602;9.886;2024-02-26T08:05:33;50.81;41.14;69.14;;
59284;Laerm;45056;47.602;9.886;2024-02-26T08:08:01;47.96;40.62;59.52;;
59284;Laerm;45056;47.602;9.886;2024-02-26T08:10:29;50.13;41.75;64.30;;
59284;Laerm;45056;47.602;9.886;2024-02-26T08:12:57;47.51;42.35;60.45;;
59284;Laerm;45056;47.602;9.886;2024-02-26T08:15:31;51.77;40.80;64.56;;
59284;Laerm;45056;47.602;9.886;2024-02-26T08:18:01;48.01;40.23;61.51;;
59284;Laerm;45056;47.602;9.886;2024-02-26T08:20:30;47.33;38.95;56.13;;
59284;Laerm;45056;47.602;9.886;2024-02-26T08:23:00;46.69;40.23;54.07;;
59284;Laerm;45056;47.602;9.886;2024-02-26T08:25:28;48.54;40.53;60.72;;
59284;Laerm;45056;47.602;9.886;2024-02-26T08:27:57;50.51;39.89;64.80;;
59284;Laerm;45056;47.602;9.886;2024-02-26T08:30:25;48.94;41.30;59.31;;
59284;Laerm;45056;47.602;9.886;2024-02-26T08:32:53;49.23;40.80;61.93;;
59284;Laerm;45056;47.602;9.886;2024-02-26T08:35:21;47.13;38.95;57.24;;
59284;Laerm;45056;47.602;9.886;2024-02-26T08:37:49;47.16;41.06;56.11;;
59284;Laerm;45056;47.602;9.886;2024-02-26T08:40:18;47.31;41.22;56.10;;
59284;Laerm;45056;47.602;9.886;2024-02-26T08:42:47;47.26;40.23;59.25;;
59284;Laerm;45056;47.602;9.886;2024-02-26T08:45:15;49.43;41.68;62.96;;
59284;Laerm;45056;47.602;9.886;2024-02-26T08:47:44;50.92;42.41;75.08;;
59284;Laerm;45056;47.602;9.886;2024-02-26T08:50:14;47.38;41.06;55.61;;
59284;Laerm;45056;47.602;9.886;2024-02-26T08:52:42;49.69;40.98;61.24;;
59284;Laerm;45056;47.602;9.886;2024-02-26T08:55:10;48.24;41.22;55.80;;
59284;Laerm;45056;47.602;9.886;2024-02-26T08:57:41;49.23;41.75;58.31;;
59284;Laerm;45056;47.602;9.886;2024-02-26T09:00:10;49.98;40.62;60.44;;
59284;Laerm;45056;47.602;9.886;2024-02-26T09:02:39;50.36;40.89;60.46;;
59284;Laerm;45056;47.602;9.886;2024-02-26T09:05:07;46.76;41.06;56.41;;
59284;Laerm;45056;47.602;9.886;2024-02-26T09:07:35;48.30;41.61;58.98;;
59284;Laerm;45056;47.602;9.886;2024-02-26T09:10:04;47.98;41.30;57.86;;
59284;Laerm;45056;47.602;9.886;2024-02-26T09:12:35;49.04;42.22;58.82;;
59284;Laerm;45056;47.602;9.886;2024-02-26T09:15:07;47.92;41.06;58.69;;
59284;Laerm;45056;47.602;9.886;2024-02-26T09:17:35;47.67;40.62;57.05;;
59284;Laerm;45056;47.602;9.886;2024-02-26T09:20:04;50.26;41.14;71.93;;
59284;Laerm;45056;47.602;9.886;2024-02-26T09:22:35;46.83;41.89;54.76;;
59284;Laerm;45056;47.602;9.886;2024-02-26T09:25:05;48.67;40.62;57.53;;
59284;Laerm;45056;47.602;9.886;2024-02-26T09:27:34;49.56;43.09;62.06;;
59284;Laerm;45056;47.602;9.886;2024-02-26T09:30:04;47.56;41.53;55.61;;
59284;Laerm;45056;47.602;9.886;2024-02-26T09:32:32;48.71;40.53;61.86;;
59284;Laerm;45056;47.602;9.886;2024-02-26T09:35:00;48.49;41.89;59.64;;
59284;Laerm;45056;47.602;9.886;2024-02-26T09:37:28;46.14;40.03;54.12;;
59284;Laerm;45056;47.602;9.886;2024-02-26T09:39:56;48.95;41.68;60.80;;
59284;Laerm;45056;47.602;9.886;2024-02-26T09:42:26;47.75;40.03;65.20;;
59284;Laerm;45056;47.602;9.886;2024-02-26T09:44:54;47.21;40.80;58.16;;
59284;Laerm;45056;47.602;9.886;2024-02-26T09:47:28;50.48;41.14;65.90;;
59284;Laerm;45056;47.602;9.886;2024-02-26T09:50:02;46.76;40.80;56.51;;
59284;Laerm;45056;47.602;9.886;2024-02-26T09:52:34;47.88;42.03;60.57;;
59284;Laerm;45056;47.602;9.886;2024-02-26T09:55:08;49.68;41.14;63.83;;
59284;Laerm;45056;47.602;9.886;2024-02-26T09:57:37;49.08;40.03;61.67;;
59284;Laerm;45056;47.602;9.886;2024-02-26T10:00:15;47.50;41.14;57.79;;
59284;Laerm;45056;47.602;9.886;2024-02-26T10:02:48;48.65;38.81;58.67;;
59284;Laerm;45056;47.602;9.886;2024-02-26T10:05:18;47.83;39.70;58.81;;
59284;Laerm;45056;47.602;9.886;2024-02-26T10:07:48;47.89;41.82;56.35;;
59284;Laerm;45056;47.602;9.886;2024-02-26T10:10:18;47.53;40.03;59.45;;
59284;Laerm;45056;47.602;9.886;2024-02-26T10:12:46;50.20;41.46;62.78;;
59284;Laerm;45056;47.602;9.886;2024-02-26T10:15:15;48.98;41.55;58.46;;
59284;Laerm;45056;47.602;9.886;2024-02-26T10:17:43;47.74;41.22;57.32;;
59284;Laerm;45056;47.602;9.886;2024-02-26T10:20:15;48.28;42.53;56.13;;
59284;Laerm;45056;47.602;9.886;2024-02-26T10:22:44;48.32;41.68;55.77;;
59284;Laerm;45056;47.602;9.886;2024-02-26T10:25:13;48.00;41.89;62.37;;
59284;Laerm;45056;47.602;9.886;2024-02-26T10:27:42;48.68;40.80;61.47;;
59284;Laerm;45056;47.602;9.886;2024-02-26T10:30:18;47.36;41.61;56.22;;
59284;Laerm;45056;47.602;9.886;2024-02-26T10:32:48;47.96;41.46;56.25;;
59284;Laerm;45056;47.602;9.886;2024-02-26T10:35:19;46.84;41.14;55.58;;
59284;Laerm;45056;47.602;9.886;2024-02-26T10:37:48;48.19;41.06;57.24;;
59284;Laerm;45056;47.602;9.886;2024-02-26T10:40:17;50.63;41.61;63.96;;
59284;Laerm;45056;47.602;9.886;2024-02-26T10:42:45;48.61;40.53;59.34;;
59284;Laerm;45056;47.602;9.886;2024-02-26T10:45:13;47.87;41.30;58.37;;
59284;Laerm;45056;47.602;9.886;2024-02-26T10:47:41;48.26;40.98;60.22;;
59284;Laerm;45056;47.602;9.886;2024-02-26T10:50:12;48.15;41.94;57.32;;
59284;Laerm;45056;47.602;9.886;2024-02-26T10:52:42;49.17;41.38;59.95;;
59284;Laerm;45056;47.602;9.886;2024-02-26T10:55:16;50.82;40.98;66.14;;
59284;Laerm;45056;47.602;9.886;2024-02-26T10:57:47;47.75;41.22;57.37;;
59284;Laerm;45056;47.602;9.886;2024-02-26T11:00:16;49.52;41.22;58.51;;
59284;Laerm;45056;47.602;9.886;2024-02-26T11:02:46;54.31;44.65;64.21;;
59284;Laerm;45056;47.602;9.886;2024-02-26T11:05:17;60.83;44.03;70.08;;
59284;Laerm;45056;47.602;9.886;2024-02-26T11:07:50;47.39;40.62;56.32;;
59284;Laerm;45056;47.602;9.886;2024-02-26T11:10:21;48.51;42.03;60.25;;
59284;Laerm;45056;47.602;9.886;2024-02-26T11:12:54;49.71;41.96;59.89;;
59284;Laerm;45056;47.602;9.886;2024-02-26T11:15:23;49.62;41.46;71.30;;
59284;Laerm;45056;47.602;9.886;2024-02-26T11:17:53;48.97;40.89;59.06;;
59284;Laerm;45056;47.602;9.886;2024-02-26T11:20:24;48.02;40.62;57.96;;
59284;Laerm;45056;47.602;9.886;2024-02-26T11:22:54;51.48;42.16;67.34;;
59284;Laerm;45056;47.602;9.886;2024-02-26T11:25:22;48.02;41.53;54.96;;
59284;Laerm;45056;47.602;9.886;2024-02-26T11:27:57;51.10;41.22;67.09;;
59284;Laerm;45056;47.602;9.886;2024-02-26T11:30:34;46.99;40.80;59.12;;
59284;Laerm;45056;47.602;9.886;2024-02-26T11:33:07;48.87;41.75;58.70;;
59284;Laerm;45056;47.602;9.886;2024-02-26T11:35:36;47.54;41.75;56.11;;
59284;Laerm;45056;47.602;9.886;2024-02-26T11:38:06;49.87;41.38;63.42;;
59284;Laerm;45056;47.602;9.886;2024-02-26T11:40:38;46.81;41.22;56.53;;
59284;Laerm;45056;47.602;9.886;2024-02-26T11:43:07;48.66;41.06;58.75;;
59284;Laerm;45056;47.602;9.886;2024-02-26T11:45:53;47.71;40.98;55.59;;
59284;Laerm;45056;47.602;9.886;2024-02-26T11:48:25;46.95;39.58;56.97;;
59284;Laerm;45056;47.602;9.886;2024-02-26T11:50:57;47.51;40.89;61.50;;
59284;Laerm;45056;47.602;9.886;2024-02-26T11:53:29;46.65;39.08;58.71;;
59284;Laerm;45056;47.602;9.886;2024-02-26T11:56:28;48.40;41.61;62.20;;
59284;Laerm;45056;47.602;9.886;2024-02-26T11:59:03;47.75;41.14;60.00;;
59284;Laerm;45056;47.602;9.886;2024-02-26T12:01:42;49.28;41.46;60.29;;
59284;Laerm;45056;47.602;9.886;2024-02-26T12:04:17;51.17;42.03;63.41;;
59284;Laerm;45056;47.602;9.886;2024-02-26T12:06:50;48.75;43.81;58.09;;
59284;Laerm;45056;47.602;9.886;2024-02-26T12:09:35;48.92;42.47;64.96;;
59284;Laerm;45056;47.602;9.886;2024-02-26T12:12:06;51.12;42.03;65.95;;
59284;Laerm;45056;47.602;9.886;2024-02-26T12:14:35;46.33;40.23;56.07;;
59284;Laerm;45056;47.602;9.886;2024-02-26T12:17:06;50.90;41.22;63.68;;
59284;Laerm;45056;47.602;9.886;2024-02-26T12:19:35;51.53;41.22;66.37;;
59284;Laerm;45056;47.602;9.886;2024-02-26T12:22:06;50.84;42.09;63.10;;
59284;Laerm;45056;47.602;9.886;2024-02-26T12:24:36;46.37;40.23;55.13;;
59284;Laerm;45056;47.602;9.886;2024-02-26T12:27:04;48.23;40.89;57.10;;
59284;Laerm;45056;47.602;9.886;2024-02-26T12:29:32;50.50;40.89;63.86;;
59284;Laerm;45056;47.602;9.886;2024-02-26T12:32:03;48.07;40.98;58.31;;
59284;Laerm;45056;47.602;9.886;2024-02-26T12:34:33;47.71;41.03;62.55;;
59284;Laerm;45056;47.602;9.886;2024-02-26T12:37:02;49.07;40.62;66.01;;
59284;Laerm;45056;47.602;9.886;2024-02-26T12:39:30;47.22;40.62;57.95;;
59284;Laerm;45056;47.602;9.886;2024-02-26T12:42:00;47.18;41.06;57.46;;
59284;Laerm;45056;47.602;9.886;2024-02-26T12:44:28;47.53;40.03;59.54;;
59284;Laerm;45056;47.602;9.886;2024-02-26T12:47:00;54.47;40.62;69.51;;
59284;Laerm;45056;47.602;9.886;2024-02-26T12:49:29;52.76;40.89;66.66;;
59284;Laerm;45056;47.602;9.886;2024-02-26T12:51:58;48.14;41.75;56.47;;
59284;Laerm;45056;47.602;9.886;2024-02-26T12:54:28;49.48;42.53;60.19;;
59284;Laerm;45056;47.602;9.886;2024-02-26T12:57:00;49.37;41.96;61.81;;
59284;Laerm;45056;47.602;9.886;2024-02-26T12:59:31;49.93;41.82;63.11;;
59284;Laerm;45056;47.602;9.886;2024-02-26T13:02:01;48.41;40.43;58.65;;
59284;Laerm;45056;47.602;9.886;2024-02-26T13:04:31;48.54;40.98;56.35;;
59284;Laerm;45056;47.602;9.886;2024-02-26T13:06:59;47.32;41.38;56.63;;
59284;Laerm;45056;47.602;9.886;2024-02-26T13:09:33;49.77;41.06;65.34;;
59284;Laerm;45056;47.602;9.886;2024-02-26T13:12:07;49.28;42.16;58.79;;
59284;Laerm;45056;47.602;9.886;2024-02-26T13:14:35;48.66;41.61;56.43;;
59284;Laerm;45056;47.602;9.886;2024-02-26T13:17:04;46.98;40.62;57.64;;
59284;Laerm;45056;47.602;9.886;2024-02-26T13:19:32;48.35;40.62;61.42;;
59284;Laerm;45056;47.602;9.886;2024-02-26T13:22:05;48.77;41.14;56.55;;
59284;Laerm;45056;47.602;9.886;2024-02-26T13:24:34;49.69;40.62;60.20;;
59284;Laerm;45056;47.602;9.886;2024-02-26T13:27:04;49.12;39.46;60.99;;
59284;Laerm;45056;47.602;9.886;2024-02-26T13:29:33;47.66;41.75;56.77;;
59284;Laerm;45056;47.602;9.886;2024-02-26T13:32:01;49.74;40.98;58.83;;
59284;Laerm;45056;47.602;9.886;2024-02-26T13:34:29;49.67;41.75;61.67;;
59284;Laerm;45056;47.602;9.886;2024-02-26T13:36:57;48.87;40.43;66.73;;
59284;Laerm;45056;47.602;9.886;2024-02-26T13:39:27;50.88;41.68;64.56;;
59284;Laerm;45056;47.602;9.886;2024-02-26T13:41:55;48.87;40.98;60.41;;
59284;Laerm;45056;47.602;9.886;2024-02-26T13:44:25;47.78;41.22;57.18;;
59284;Laerm;45056;47.602;9.886;2024-02-26T13:46:53;49.03;42.22;59.38;;
59284;Laerm;45056;47.602;9.886;2024-02-26T13:49:21;49.38;41.68;60.89;;
59284;Laerm;45056;47.602;9.886;2024-02-26T13:51:50;47.98;41.75;58.12;;
59284;Laerm;45056;47.602;9.886;2024-02-26T13:54:18;49.72;42.47;58.50;;
59284;Laerm;45056;47.602;9.886;2024-02-26T13:56:46;50.46;43.44;66.26;;